Time;durP1;ratioP1;P1;durP2;ratioP2;P2;SDS_P1;SDS_P2;PMS_P1;PMS_P2;Temp;Humidity;BMP_temperature;BMP_pressure;BME280_temperature;BME280_humidity;BME280_pressure;Samples;Min_cycle;Max_cycle;Signal;HPM_P1;HPM_P2
2021/04/22 00:01:53;;;;;;;12.13;7.45;;;;;;;8.69;75.76;98856.94;5070141;28;20059;-68
2021/04/22 00:04:18;;;;;;;11.75;7.55;;;;;;;8.81;76.02;98867.25;5071582;28;20020;-68
2021/04/22 00:06:46;;;;;;;12.55;7.68;;;;;;;8.80;76.12;98868.28;5070917;28;20059;-68
2021/04/22 00:09:11;;;;;;;12.93;7.82;;;;;;;8.79;76.23;98867.44;5071259;28;20424;-68
2021/04/22 00:11:37;;;;;;;13.02;7.78;;;;;;;8.63;76.79;98846.94;5066897;28;20020;-68
2021/04/22 00:14:04;;;;;;;14.70;8.32;;;;;;;8.72;78.00;98861.13;5058737;28;20020;-68
2021/04/22 00:16:30;;;;;;;10.18;7.78;;;;;;;8.58;78.65;98860.13;5069344;28;20111;-68
2021/04/22 00:18:56;;;;;;;12.90;8.20;;;;;;;8.57;79.00;98874.66;5071194;28;20537;-68
2021/04/22 00:21:21;;;;;;;12.93;7.38;;;;;;;8.46;79.68;98870.59;5070446;28;20021;-68
2021/04/22 00:23:46;;;;;;;15.45;7.47;;;;;;;8.30;79.72;98863.47;5068583;28;20068;-68
2021/04/22 00:26:11;;;;;;;11.93;7.35;;;;;;;8.22;80.45;98865.44;5071415;28;20040;-68
2021/04/22 00:28:37;;;;;;;13.70;8.00;;;;;;;8.15;81.14;98872.59;5070841;28;20389;-68
2021/04/22 00:31:02;;;;;;;10.32;6.95;;;;;;;8.10;80.63;98867.78;5071823;28;20103;-68
2021/04/22 00:33:27;;;;;;;10.43;7.35;;;;;;;8.00;80.90;98867.22;5069750;28;20032;-67
2021/04/22 00:35:53;;;;;;;11.25;7.07;;;;;;;7.95;81.40;98862.38;5069135;28;20024;-68
2021/04/22 00:38:18;;;;;;;15.93;7.88;;;;;;;7.85;81.70;98843.78;5071031;28;20024;-67
2021/04/22 00:40:46;;;;;;;19.15;7.10;;;;;;;8.10;81.11;98860.53;5070207;28;20038;-67
2021/04/22 00:43:15;;;;;;;11.85;7.30;;;;;;;7.99;80.93;98874.47;5070760;28;20017;-67
2021/04/22 00:45:42;;;;;;;11.45;7.25;;;;;;;8.00;81.48;98870.75;5054477;28;20497;-67
2021/04/22 00:48:16;;;;;;;13.85;8.50;;;;;;;7.92;82.42;98889.69;5074167;28;20032;-67
2021/04/22 00:50:42;;;;;;;12.52;8.25;;;;;;;7.70;83.22;98880.63;5074268;28;20032;-67
2021/04/22 00:53:08;;;;;;;13.55;8.45;;;;;;;7.46;83.93;98871.78;5074692;28;20028;-67
2021/04/22 00:55:35;;;;;;;13.65;8.93;;;;;;;7.47;83.78;98886.91;5075469;28;20244;-67
2021/04/22 00:58:02;;;;;;;14.07;8.57;;;;;;;7.33;83.76;98898.47;5074906;28;20086;-67
2021/04/22 01:00:30;;;;;;;13.45;9.35;;;;;;;7.29;84.92;98899.03;5072074;28;20032;-67
2021/04/22 01:02:58;;;;;;;16.55;8.38;;;;;;;7.23;85.47;98897.88;5074550;28;20024;-67
2021/04/22 01:05:31;;;;;;;14.70;8.30;;;;;;;7.27;85.17;98901.06;5074726;28;20050;-67
2021/04/22 01:07:56;;;;;;;13.00;8.52;;;;;;;7.39;84.54;98896.94;5074572;28;20037;-67
2021/04/22 01:10:22;;;;;;;14.27;8.82;;;;;;;7.41;84.57;98894.88;5074979;28;20108;-67
2021/04/22 01:12:48;;;;;;;14.63;8.30;;;;;;;7.37;84.08;98894.41;5067605;28;20478;-67
2021/04/22 01:15:22;;;;;;;19.00;8.95;;;;;;;7.33;84.58;98908.41;5071068;28;20025;-67
2021/04/22 01:17:48;;;;;;;15.05;9.25;;;;;;;7.22;84.80;98915.88;5074420;28;20025;-68
2021/04/22 01:20:25;;;;;;;14.48;8.77;;;;;;;7.13;84.80;98910.75;5073640;28;20035;-69
2021/04/22 01:22:51;;;;;;;14.32;7.88;;;;;;;7.01;85.14;98921.91;5065407;28;20029;-68
2021/04/22 01:25:22;;;;;;;13.43;8.23;;;;;;;7.09;85.43;98918.31;5068879;28;20017;-68
2021/04/22 01:27:47;;;;;;;11.60;7.88;;;;;;;7.11;84.63;98924.38;5073895;28;20028;-68
2021/04/22 01:30:19;;;;;;;12.02;8.38;;;;;;;7.14;83.73;98923.16;5074662;28;20103;-69
2021/04/22 01:32:45;;;;;;;11.30;7.05;;;;;;;7.29;83.30;98915.16;5063098;28;20025;-69
2021/04/22 01:35:14;;;;;;;14.43;8.25;;;;;;;7.31;83.23;98918.50;5059204;28;20028;-69
2021/04/22 01:37:41;;;;;;;12.48;8.70;;;;;;;7.37;83.47;98913.25;5073854;28;20040;-68
2021/04/22 01:40:07;;;;;;;12.38;7.72;;;;;;;7.47;82.31;98913.00;5074533;28;20031;-68
2021/04/22 01:42:33;;;;;;;13.68;7.90;;;;;;;7.40;82.54;98902.13;5071195;28;20020;-68
2021/04/22 01:44:59;;;;;;;12.88;8.25;;;;;;;7.30;83.02;98919.53;5072600;28;20028;-68
2021/04/22 01:47:25;;;;;;;18.27;8.00;;;;;;;7.17;82.96;98926.31;5073689;28;20024;-68
2021/04/22 01:49:50;;;;;;;11.52;7.75;;;;;;;7.03;82.92;98919.88;5073899;28;20039;-68
2021/04/22 01:52:15;;;;;;;14.50;8.70;;;;;;;6.89;83.69;98898.25;5071771;28;20017;-68
2021/04/22 01:54:41;;;;;;;15.13;8.85;;;;;;;6.93;83.63;98913.03;5065299;28;20043;-67
2021/04/22 01:57:07;;;;;;;13.60;8.77;;;;;;;7.02;83.17;98922.72;5072331;28;20583;-68
2021/04/22 01:59:33;;;;;;;15.40;9.00;;;;;;;6.93;83.09;98910.34;5073141;28;20107;-68
2021/04/22 02:01:58;;;;;;;12.70;8.90;;;;;;;7.02;83.40;98920.03;5074113;28;20032;-68
2021/04/22 02:04:24;;;;;;;17.55;10.70;;;;;;;7.00;82.77;98935.53;5071819;28;20032;-68
2021/04/22 02:06:49;;;;;;;17.17;10.43;;;;;;;6.92;82.48;98912.22;5074284;28;20024;-68
2021/04/22 02:09:14;;;;;;;20.38;10.75;;;;;;;7.02;82.50;98928.09;5073526;28;20087;-68
2021/04/22 02:11:40;;;;;;;18.58;10.35;;;;;;;7.06;81.82;98937.50;5072385;28;20036;-68
2021/04/22 02:14:05;;;;;;;16.15;10.30;;;;;;;7.05;81.88;98937.66;5073576;28;20052;-67
2021/04/22 02:16:30;;;;;;;17.02;10.23;;;;;;;7.05;82.36;98948.44;5072228;28;20030;-67
2021/04/22 02:18:55;;;;;;;21.67;11.20;;;;;;;7.00;81.93;98944.44;5073077;28;20032;-67
2021/04/22 02:21:21;;;;;;;18.55;11.18;;;;;;;7.02;81.63;98946.94;5071165;28;20047;-67
2021/04/22 02:23:46;;;;;;;16.55;10.65;;;;;;;7.00;80.47;98943.59;5073029;28;20462;-67
2021/04/22 02:26:11;;;;;;;21.10;11.63;;;;;;;7.10;80.97;98940.66;5073740;28;20052;-67
2021/04/22 02:28:37;;;;;;;21.77;11.98;;;;;;;7.22;79.95;98939.25;5073208;28;20025;-67
2021/04/22 02:31:02;;;;;;;17.75;9.57;;;;;;;7.29;80.53;98934.00;5072266;28;20029;-67
2021/04/22 02:33:27;;;;;;;18.13;10.98;;;;;;;7.28;80.25;98932.31;5071897;28;20033;-67
2021/04/22 02:35:52;;;;;;;20.30;12.20;;;;;;;7.40;78.92;98936.28;5073205;28;20024;-67
2021/04/22 02:38:18;;;;;;;21.38;12.35;;;;;;;7.49;78.87;98937.03;5072024;28;20055;-67
2021/04/22 02:40:46;;;;;;;19.92;12.35;;;;;;;7.59;78.63;98935.78;5072691;28;20077;-68
2021/04/22 02:43:14;;;;;;;23.60;11.90;;;;;;;7.72;77.76;98937.03;5072266;28;20020;-67
2021/04/22 02:45:43;;;;;;;21.38;11.88;;;;;;;7.76;77.54;98935.66;5072678;28;20107;-68
2021/04/22 02:48:09;;;;;;;17.35;11.50;;;;;;;7.74;77.59;98937.69;5073338;28;20024;-69
2021/04/22 02:50:39;;;;;;;16.02;10.60;;;;;;;7.63;77.11;98931.72;5071620;28;20029;-69
2021/04/22 02:53:06;;;;;;;14.98;10.15;;;;;;;7.65;77.28;98945.84;5072316;28;20028;-69
2021/04/22 02:55:31;;;;;;;22.42;12.23;;;;;;;7.49;77.40;98927.09;5073081;28;20434;-69
2021/04/22 02:57:57;;;;;;;24.27;12.73;;;;;;;7.46;77.44;98940.94;5070288;28;20116;-69
2021/04/22 03:00:23;;;;;;;19.85;12.57;;;;;;;7.51;77.67;98951.16;5072681;28;20099;-69
2021/04/22 03:02:48;;;;;;;25.30;14.02;;;;;;;7.57;77.59;98948.59;5061459;28;20016;-69
2021/04/22 03:05:14;;;;;;;21.38;13.85;;;;;;;7.47;77.84;98942.63;5072906;28;20028;-70
2021/04/22 03:07:40;;;;;;;24.88;13.90;;;;;;;7.42;77.49;98939.63;5071679;28;20132;-69
2021/04/22 03:10:07;;;;;;;27.63;14.25;;;;;;;7.43;78.27;98954.75;5072699;28;20456;-67
2021/04/22 03:12:32;;;;;;;26.35;15.10;;;;;;;7.40;78.01;98961.34;5068262;28;20032;-67
2021/04/22 03:14:58;;;;;;;25.50;14.93;;;;;;;7.33;78.42;98963.06;5072618;28;20039;-69
2021/04/22 03:17:23;;;;;;;24.33;14.77;;;;;;;7.25;78.73;98957.72;5072782;28;20063;-69
2021/04/22 03:19:48;;;;;;;25.77;14.82;;;;;;;7.33;78.87;98968.44;5071481;28;20063;-69
2021/04/22 03:22:14;;;;;;;26.60;14.98;;;;;;;7.38;78.07;98960.66;5060558;28;20032;-69
2021/04/22 03:24:39;;;;;;;26.27;15.43;;;;;;;7.38;77.56;98965.22;5071021;28;20036;-69
2021/04/22 03:27:05;;;;;;;28.00;15.68;;;;;;;7.33;77.80;98962.22;5072638;28;20055;-69
2021/04/22 03:29:30;;;;;;;28.70;15.43;;;;;;;7.42;77.87;98977.31;5071040;28;20031;-69
2021/04/22 03:31:56;;;;;;;24.98;14.95;;;;;;;7.41;77.85;98975.63;5070018;28;20539;-67
2021/04/22 03:34:21;;;;;;;27.73;14.82;;;;;;;7.41;77.89;98981.00;5071933;28;20435;-67
2021/04/22 03:36:46;;;;;;;26.30;14.68;;;;;;;7.35;77.91;98970.97;5072398;28;20067;-67
2021/04/22 03:39:12;;;;;;;24.15;14.73;;;;;;;7.31;78.28;98980.41;5072074;28;20032;-67
2021/04/22 03:41:37;;;;;;;26.33;13.90;;;;;;;7.15;77.79;98960.66;5067597;28;20518;-68
2021/04/22 03:44:04;;;;;;;22.83;14.07;;;;;;;7.02;78.32;98966.63;5058887;28;20036;-70
2021/04/22 03:46:29;;;;;;;27.17;14.35;;;;;;;6.93;78.60;98972.22;5073961;28;20052;-71
2021/04/22 03:48:54;;;;;;;25.02;14.52;;;;;;;6.96;78.53;98985.31;5065336;28;20055;-70
2021/04/22 03:51:20;;;;;;;23.15;13.23;;;;;;;6.90;78.16;98972.56;5068358;28;20478;-73
2021/04/22 03:53:45;;;;;;;23.15;14.05;;;;;;;6.87;78.60;98979.13;5069813;28;20173;-72
2021/04/22 03:56:10;;;;;;;22.88;14.20;;;;;;;6.84;78.66;98994.78;5072081;28;20016;-73
2021/04/22 03:58:35;;;;;;;22.20;13.88;;;;;;;6.82;79.17;98989.59;5069746;28;20061;-72
2021/04/22 04:01:02;;;;;;;23.63;13.20;;;;;;;6.70;79.00;98986.41;5064720;28;20107;-70
2021/04/22 04:03:28;;;;;;;22.10;13.95;;;;;;;6.79;78.84;99003.38;5062723;28;20012;-72
2021/04/22 04:05:53;;;;;;;22.38;14.27;;;;;;;6.80;79.26;99005.03;5069706;28;20094;-68
2021/04/22 04:08:18;;;;;;;24.52;14.07;;;;;;;6.73;79.07;99001.38;5064214;28;20099;-69
2021/04/22 04:10:43;;;;;;;25.90;13.85;;;;;;;6.56;79.46;98987.16;5072055;28;20109;-69
2021/04/22 04:13:09;;;;;;;24.35;14.00;;;;;;;6.62;79.76;99010.66;5063160;28;20025;-70
2021/04/22 04:15:34;;;;;;;25.10;14.05;;;;;;;6.61;79.90;99011.69;5067744;28;20032;-69
2021/04/22 04:18:00;;;;;;;23.60;14.00;;;;;;;6.56;79.98;99008.66;5067693;28;20039;-68
2021/04/22 04:20:26;;;;;;;26.27;14.90;;;;;;;6.57;80.06;99015.72;5052042;28;20032;-70
2021/04/22 04:22:51;;;;;;;26.95;13.73;;;;;;;6.47;79.59;98999.78;5068033;28;20025;-68
2021/04/22 04:25:16;;;;;;;25.42;14.77;;;;;;;6.51;79.70;99014.56;5071662;28;20074;-69
2021/04/22 04:27:42;;;;;;;26.48;14.43;;;;;;;6.70;79.31;99044.75;5070399;28;20093;-71
2021/04/22 04:30:11;;;;;;;26.33;14.13;;;;;;;6.77;79.86;99048.44;5068473;28;20119;-70
2021/04/22 04:32:40;;;;;;;27.20;14.67;;;;;;;6.69;80.33;99043.91;5070010;28;20074;-71
2021/04/22 04:35:05;;;;;;;26.15;14.73;;;;;;;6.56;79.95;99040.91;5069971;28;20043;-79
2021/04/22 04:37:31;;;;;;;33.28;15.05;;;;;;;6.58;80.28;99049.66;5069688;28;20025;-70
2021/04/22 04:39:56;;;;;;;23.48;14.02;;;;;;;6.49;80.15;99054.19;5057801;28;20390;-68
2021/04/22 04:42:22;;;;;;;23.10;14.85;;;;;;;6.38;80.54;99045.66;5067040;28;20016;-74
2021/04/22 04:44:47;;;;;;;25.58;14.40;;;;;;;6.34;80.54;99054.06;5065961;28;20028;-71
2021/04/22 04:47:12;;;;;;;29.58;15.05;;;;;;;6.33;80.18;99055.06;5069904;28;20028;-72
2021/04/22 04:49:38;;;;;;;27.65;15.15;;;;;;;6.31;80.42;99054.41;5061115;28;20655;-74
2021/04/22 04:52:06;;;;;;;28.13;15.75;;;;;;;6.42;80.60;99068.47;5063065;28;20035;-72
2021/04/22 04:54:31;;;;;;;24.00;13.80;;;;;;;6.51;80.17;99078.22;5071189;28;20024;-73
2021/04/22 04:56:57;;;;;;;28.55;14.90;;;;;;;6.50;80.23;99079.25;5069628;28;20032;-77
2021/04/22 04:59:23;;;;;;;24.95;14.60;;;;;;;6.58;79.70;99081.91;5069560;28;20029;-70
2021/04/22 05:01:48;;;;;;;26.17;15.50;;;;;;;6.62;79.51;99071.66;5062606;28;20029;-74
2021/04/22 05:04:13;;;;;;;24.23;14.75;;;;;;;6.78;79.29;99087.75;5056995;28;20029;-74
2021/04/22 05:06:39;;;;;;;26.50;14.73;;;;;;;6.88;78.82;99091.06;5059384;28;20025;-70
2021/04/22 05:09:05;;;;;;;24.70;14.43;;;;;;;6.88;78.46;99088.38;5063027;28;20116;-70
2021/04/22 05:11:30;;;;;;;30.58;15.55;;;;;;;6.97;78.32;99091.91;5070900;28;20036;-65
2021/04/22 05:13:55;;;;;;;21.55;14.40;;;;;;;7.12;77.94;99105.47;5060770;28;20079;-66
2021/04/22 05:16:21;;;;;;;23.65;13.73;;;;;;;7.13;78.04;99108.00;5063053;28;20066;-70
2021/04/22 05:18:46;;;;;;;25.48;14.98;;;;;;;7.18;77.73;99113.69;5071103;28;20390;-72
2021/04/22 05:21:11;;;;;;;24.92;14.55;;;;;;;7.33;77.56;99115.63;5055430;28;20036;-74
2021/04/22 05:23:38;;;;;;;31.23;15.85;;;;;;;7.60;76.79;99125.94;5065596;28;20056;-84
2021/04/22 05:26:04;;;;;;;22.42;14.30;;;;;;;7.77;75.98;99132.06;5068058;28;20683;-77
2021/04/22 05:28:29;;;;;;;29.05;15.68;;;;;;;7.82;75.16;99118.06;5063923;28;20107;-74
2021/04/22 05:30:54;;;;;;;25.00;14.45;;;;;;;7.94;75.37;99108.56;5059378;28;20017;-73
2021/04/22 05:33:20;;;;;;;24.10;14.35;;;;;;;8.13;74.80;99129.66;5069388;28;20477;-73
2021/04/22 05:35:45;;;;;;;23.98;13.40;;;;;;;8.32;73.33;99127.47;5088994;28;20035;-77
2021/04/22 05:38:11;;;;;;;23.42;14.70;;;;;;;8.32;73.39;99119.41;5070497;28;20028;-81
2021/04/22 05:40:37;;;;;;;24.42;13.23;;;;;;;8.64;73.22;99134.47;5067571;28;20017;-72
2021/04/22 05:43:05;;;;;;;23.90;13.88;;;;;;;8.70;73.46;99149.13;5065296;28;20096;-68
2021/04/22 05:45:31;;;;;;;27.23;14.03;;;;;;;8.57;73.23;99149.72;5066319;28;20131;-75
2021/04/22 05:47:56;;;;;;;26.98;14.18;;;;;;;8.52;72.71;99142.19;5068337;28;20537;-74
2021/04/22 05:50:21;;;;;;;23.80;12.38;;;;;;;8.73;72.60;99162.22;5062448;28;20043;-64
2021/04/22 05:52:47;;;;;;;26.25;13.90;;;;;;;8.78;72.54;99151.72;5059674;28;20033;-70
2021/04/22 05:55:13;;;;;;;24.50;12.68;;;;;;;8.95;71.42;99153.22;5071232;28;20056;-68
2021/04/22 05:57:39;;;;;;;20.52;12.95;;;;;;;9.07;70.56;99120.41;5071785;28;20023;-72
2021/04/22 06:00:08;;;;;;;21.58;13.02;;;;;;;9.46;70.17;99151.66;5084500;28;20477;-72
2021/04/22 06:02:34;;;;;;;20.63;12.80;;;;;;;9.77;69.13;99146.88;5062611;28;20070;-81
2021/04/22 06:04:59;;;;;;;22.80;11.77;;;;;;;10.61;66.27;99165.25;5063399;28;20036;-77
2021/04/22 06:07:24;;;;;;;18.60;11.30;;;;;;;10.53;65.35;99132.91;5073571;28;20032;-76
2021/04/22 06:09:50;;;;;;;23.05;11.63;;;;;;;10.65;65.48;99168.38;5071554;28;20029;-68
2021/04/22 06:12:16;;;;;;;20.60;12.13;;;;;;;10.33;67.28;99164.34;5058956;28;20028;-74
2021/04/22 06:14:41;;;;;;;20.45;11.57;;;;;;;10.01;67.42;99164.63;5066035;28;20037;-73
2021/04/22 06:17:06;;;;;;;22.75;11.55;;;;;;;10.19;67.40;99177.72;5071737;28;20458;-75
2021/04/22 06:19:32;;;;;;;18.17;10.65;;;;;;;10.07;67.34;99163.84;5057417;28;20024;-75
2021/04/22 06:21:57;;;;;;;18.58;10.70;;;;;;;10.50;66.96;99185.53;5064526;28;20017;-78
2021/04/22 06:24:22;;;;;;;16.85;9.82;;;;;;;10.50;65.50;99179.28;5053034;28;20017;-73
2021/04/22 06:26:48;;;;;;;20.23;11.02;;;;;;;10.29;65.57;99153.91;5068748;28;20063;-78
2021/04/22 06:29:14;;;;;;;19.88;10.98;;;;;;;10.63;66.15;99194.81;5052946;28;20063;-68
2021/04/22 06:31:39;;;;;;;21.45;10.75;;;;;;;10.78;64.93;99190.16;5052638;28;20112;-69
2021/04/22 06:34:04;;;;;;;20.42;10.82;;;;;;;11.73;62.50;99191.41;5067166;28;20091;-75
2021/04/22 06:36:30;;;;;;;15.85;9.95;;;;;;;12.20;61.68;99194.31;5064192;28;20171;-70
2021/04/22 06:38:55;;;;;;;20.65;9.90;;;;;;;12.28;61.15;99202.28;5073372;28;20016;-74
2021/04/22 06:41:21;;;;;;;19.02;10.35;;;;;;;12.12;60.82;99192.63;5072613;28;20025;-73
2021/04/22 06:43:46;;;;;;;20.88;10.05;;;;;;;12.15;60.50;99211.22;5070319;28;20021;-67
2021/04/22 06:46:11;;;;;;;18.20;9.57;;;;;;;11.60;61.56;99204.88;5057619;28;20078;-68
2021/04/22 06:48:37;;;;;;;21.55;9.93;;;;;;;11.53;61.70;99198.63;5071838;28;20414;-74
2021/04/22 06:51:03;;;;;;;17.05;8.85;;;;;;;11.32;61.52;99196.81;5067568;28;20067;-74
2021/04/22 06:53:28;;;;;;;16.67;8.40;;;;;;;11.15;62.11;99226.88;5072677;28;20501;-68
2021/04/22 06:55:54;;;;;;;19.33;9.60;;;;;;;11.15;63.01;99218.75;5072894;28;20036;-68
2021/04/22 06:58:19;;;;;;;21.20;9.82;;;;;;;11.16;62.61;99233.13;5072376;28;20024;-68
2021/04/22 07:00:45;;;;;;;14.27;8.07;;;;;;;11.24;62.38;99230.31;5073121;28;20026;-70
2021/04/22 07:03:10;;;;;;;13.73;8.73;;;;;;;12.20;58.85;99232.31;5073128;28;20028;-68
2021/04/22 07:05:37;;;;;;;18.45;8.55;;;;;;;12.56;58.66;99245.56;5071424;28;20020;-68
2021/04/22 07:08:03;;;;;;;17.55;7.93;;;;;;;13.90;54.01;99241.75;5064683;28;20067;-68
2021/04/22 07:10:29;;;;;;;17.70;8.32;;;;;;;15.31;50.77;99232.56;5070081;28;20035;-70
2021/04/22 07:12:55;;;;;;;15.93;8.80;;;;;;;14.62;52.08;99236.25;5068037;28;20024;-68
2021/04/22 07:15:21;;;;;;;13.77;7.68;;;;;;;14.35;52.30;99246.41;5063991;28;20039;-72
2021/04/22 07:17:47;;;;;;;15.35;8.25;;;;;;;13.52;54.22;99245.22;5055274;28;20049;-71
2021/04/22 07:20:16;;;;;;;17.77;7.57;;;;;;;13.03;55.56;99245.63;5057815;28;20089;-69
2021/04/22 07:22:42;;;;;;;13.73;7.22;;;;;;;12.55;57.28;99251.19;5068941;28;20028;-70
2021/04/22 07:25:11;;;;;;;14.15;7.53;;;;;;;12.36;57.85;99269.91;5071073;28;20039;-68
2021/04/22 07:27:36;;;;;;;20.17;7.93;;;;;;;12.13;57.57;99270.28;5073727;28;20058;-69
2021/04/22 07:30:04;;;;;;;12.68;7.28;;;;;;;12.43;57.42;99272.66;5055101;28;20071;-72
2021/04/22 07:32:29;;;;;;;18.77;7.13;;;;;;;12.34;56.43;99269.31;5065949;28;20052;-74
2021/04/22 07:34:54;;;;;;;15.68;7.00;;;;;;;12.15;56.50;99270.03;5072562;28;20059;-72
2021/04/22 07:37:20;;;;;;;15.05;6.45;;;;;;;12.30;56.67;99273.47;5072390;28;20396;-68
2021/04/22 07:39:45;;;;;;;15.15;7.32;;;;;;;12.67;55.52;99268.56;5071313;28;20058;-66
2021/04/22 07:42:11;;;;;;;15.80;6.10;;;;;;;12.98;54.46;99259.81;5071443;28;20039;-77
2021/04/22 07:44:37;;;;;;;15.02;6.18;;;;;;;13.38;53.53;99273.44;5067549;28;20021;-73
2021/04/22 07:47:03;;;;;;;17.15;5.70;;;;;;;14.07;52.14;99266.63;5071013;28;20032;-69
2021/04/22 07:49:29;;;;;;;13.40;6.60;;;;;;;14.33;51.81;99260.25;5070052;28;20060;-70
2021/04/22 07:51:55;;;;;;;12.82;5.82;;;;;;;15.34;49.04;99269.44;5061556;28;20066;-71
2021/04/22 07:56:48;;;;;;;10.27;5.57;;;;;;;17.62;45.32;99250.72;5011501;28;20054;-74
2021/04/22 07:59:14;;;;;;;10.38;5.70;;;;;;;19.33;41.41;99256.59;5012148;28;20022;-78
2021/04/22 08:01:39;;;;;;;10.68;5.55;;;;;;;19.36;40.69;99262.41;5005618;28;20065;-73
2021/04/22 08:04:05;;;;;;;14.32;5.68;;;;;;;19.26;41.61;99259.50;4992825;28;20049;-74
2021/04/22 08:06:32;;;;;;;11.57;6.03;;;;;;;18.20;42.91;99265.41;4982637;28;20479;-74
2021/04/22 08:08:58;;;;;;;13.48;5.88;;;;;;;16.37;45.72;99267.97;4998602;28;20480;-82
2021/04/22 08:11:23;;;;;;;11.02;5.07;;;;;;;15.67;47.17;99263.69;5007215;28;20040;-75
2021/04/22 08:13:48;;;;;;;18.17;5.38;;;;;;;15.10;48.54;99277.41;5005774;28;20097;-74
2021/04/22 08:16:13;;;;;;;8.98;4.68;;;;;;;15.37;47.76;99279.91;5007165;28;20026;-73
2021/04/22 08:18:41;;;;;;;11.10;5.32;;;;;;;14.72;48.98;99282.06;5001536;28;20033;-78
2021/04/22 08:21:07;;;;;;;11.52;5.53;;;;;;;14.89;48.82;99289.50;4993549;28;20057;-72
2021/04/22 08:23:32;;;;;;;9.82;4.97;;;;;;;14.38;49.28;99281.34;5009548;28;20455;-74
2021/04/22 08:26:02;;;;;;;10.23;5.65;;;;;;;14.42;49.55;99291.59;4992513;28;20108;-74
2021/04/22 08:28:30;;;;;;;10.35;4.78;;;;;;;15.31;47.17;99275.34;5009586;28;20049;-71
2021/04/22 08:31:00;;;;;;;9.32;4.80;;;;;;;15.19;46.96;99272.50;4994661;28;20084;-73
2021/04/22 08:33:26;;;;;;;12.45;4.57;;;;;;;15.41;47.09;99302.13;5002925;28;20076;-73
2021/04/22 08:35:52;;;;;;;11.23;4.50;;;;;;;15.93;45.43;99287.19;5008944;28;20034;-75
2021/04/22 08:38:18;;;;;;;8.15;3.95;;;;;;;18.79;40.25;99278.97;5012343;28;20025;-78
2021/04/22 08:40:45;;;;;;;11.05;3.97;;;;;;;20.67;36.73;99280.22;4996204;28;20026;-75
2021/04/22 08:43:11;;;;;;;10.05;4.78;;;;;;;21.03;35.14;99283.31;5011070;28;20100;-73
2021/04/22 08:45:38;;;;;;;10.32;4.20;;;;;;;22.19;33.64;99281.78;4993359;28;20117;-73
2021/04/22 08:48:04;;;;;;;7.63;3.60;;;;;;;23.18;31.67;99270.75;5012275;28;20046;-74
2021/04/22 08:50:32;;;;;;;6.70;3.90;;;;;;;24.49;29.50;99276.38;5012091;28;20030;-72
2021/04/22 08:53:00;;;;;;;8.02;4.10;;;;;;;23.68;31.33;99285.66;4994161;28;20022;-72
2021/04/22 08:55:29;;;;;;;9.75;3.80;;;;;;;24.67;29.60;99279.63;5005557;28;20033;-73
2021/04/22 08:57:56;;;;;;;8.05;4.00;;;;;;;24.13;30.04;99275.69;5008196;28;20032;-74
2021/04/22 09:00:24;;;;;;;9.10;3.88;;;;;;;24.35;31.25;99280.84;5005316;28;20030;-73
2021/04/22 09:02:50;;;;;;;9.15;3.92;;;;;;;24.98;29.96;99290.53;5014537;28;20030;-75
2021/04/22 09:05:17;;;;;;;10.20;4.15;;;;;;;25.21;29.52;99291.81;5011430;28;20105;-74
2021/04/22 09:07:42;;;;;;;7.13;3.72;;;;;;;25.49;28.45;99291.03;5015004;28;20032;-70
2021/04/22 09:10:10;;;;;;;9.25;3.65;;;;;;;25.01;29.07;99301.03;5015641;28;20038;-71
2021/04/22 09:12:35;;;;;;;8.00;3.70;;;;;;;25.80;28.41;99297.09;5015707;28;20467;-71
2021/04/22 09:15:12;;;;;;;8.60;3.70;;;;;;;24.00;30.80;99296.44;5001445;28;20038;-69
2021/04/22 09:17:40;;;;;;;6.68;3.72;;;;;;;25.25;29.58;99298.41;5012714;28;20033;-70
2021/04/22 09:20:08;;;;;;;12.02;4.20;;;;;;;24.33;29.12;99298.84;5015701;28;20029;-70
2021/04/22 09:22:41;;;;;;;10.73;3.95;;;;;;;26.10;28.00;99299.91;4985804;28;20049;-69
2021/04/22 09:25:15;;;;;;;7.50;3.97;;;;;;;26.22;27.01;99297.53;5001311;28;20029;-69
2021/04/22 09:27:41;;;;;;;7.95;3.78;;;;;;;27.30;25.84;99299.75;5000903;28;20522;-71
2021/04/22 09:30:08;;;;;;;8.68;3.08;;;;;;;28.77;24.96;99294.59;5013272;28;20030;-69
2021/04/22 09:32:34;;;;;;;7.35;3.88;;;;;;;26.35;27.43;99287.69;5004229;28;20029;-69
2021/04/22 09:35:04;;;;;;;9.55;3.42;;;;;;;25.51;28.04;99305.41;5013514;28;20022;-70
2021/04/22 09:37:40;;;;;;;7.85;3.28;;;;;;;24.96;28.24;99293.59;5014396;28;20411;-71
2021/04/22 09:40:19;;;;;;;7.35;3.33;;;;;;;24.92;27.59;99298.06;5011036;28;20026;-70
2021/04/22 09:42:46;;;;;;;8.20;3.63;;;;;;;25.04;27.70;99290.19;5002196;28;20050;-72
2021/04/22 09:45:13;;;;;;;10.18;3.70;;;;;;;24.78;27.98;99286.75;4996098;28;20030;-72
2021/04/22 09:47:38;;;;;;;9.38;3.42;;;;;;;25.97;27.94;99274.53;4997201;28;20026;-72
2021/04/22 09:50:10;;;;;;;6.30;3.30;;;;;;;25.24;28.38;99282.91;5015699;28;20044;-72
2021/04/22 09:52:39;;;;;;;11.55;3.47;;;;;;;25.52;28.67;99287.69;5001809;28;20042;-71
2021/04/22 09:55:07;;;;;;;6.78;3.95;;;;;;;25.45;27.99;99287.19;4995743;28;20034;-72
2021/04/22 09:57:34;;;;;;;10.57;3.30;;;;;;;24.85;28.37;99286.47;5010971;28;20026;-72
2021/04/22 10:00:03;;;;;;;8.70;3.58;;;;;;;25.59;28.31;99295.63;5002728;28;20057;-71
2021/04/22 10:02:28;;;;;;;8.18;3.40;;;;;;;25.70;28.36;99296.38;5008900;28;20028;-71
2021/04/22 10:04:56;;;;;;;9.48;3.00;;;;;;;26.37;26.07;99294.59;5001866;28;20048;-74
2021/04/22 10:07:27;;;;;;;6.43;3.08;;;;;;;24.65;28.10;99292.91;5006097;28;20030;-77
2021/04/22 10:09:55;;;;;;;8.05;3.13;;;;;;;24.21;28.36;99302.75;5013484;28;20064;-75
2021/04/22 10:12:25;;;;;;;8.68;3.20;;;;;;;25.17;27.91;99299.03;5009519;28;20757;-75
2021/04/22 10:14:51;;;;;;;8.25;2.92;;;;;;;25.64;26.94;99297.53;4989168;28;20033;-72
2021/04/22 10:17:19;;;;;;;6.60;2.80;;;;;;;25.91;25.60;99297.03;5009058;28;20783;-72
2021/04/22 10:19:56;;;;;;;5.75;2.67;;;;;;;25.95;26.01;99287.03;4994467;28;20026;-78
2021/04/22 10:22:27;;;;;;;6.72;2.63;;;;;;;26.63;25.58;99295.13;4995333;28;20562;-73
2021/04/22 10:25:01;;;;;;;7.40;2.60;;;;;;;26.71;24.43;99288.09;5009408;28;20076;-75
2021/04/22 10:27:28;;;;;;;6.57;2.70;;;;;;;27.38;22.97;99282.41;5006428;28;20051;-74
2021/04/22 10:29:56;;;;;;;6.40;2.42;;;;;;;27.39;24.06;99281.28;5009290;28;20100;-74
2021/04/22 10:32:22;;;;;;;5.30;2.53;;;;;;;26.89;23.98;99290.06;5007078;28;20060;-74
2021/04/22 10:34:50;;;;;;;6.07;2.78;;;;;;;26.72;24.17;99291.69;5009126;28;20488;-74
2021/04/22 10:37:16;;;;;;;6.47;2.85;;;;;;;26.68;23.92;99283.16;5003960;28;20025;-74
2021/04/22 10:39:42;;;;;;;6.85;2.28;;;;;;;25.47;25.91;99284.13;5001499;28;20109;-74
2021/04/22 10:42:08;;;;;;;6.22;2.58;;;;;;;26.56;24.91;99282.75;5009870;28;20471;-74
2021/04/22 10:44:36;;;;;;;6.72;2.70;;;;;;;26.37;24.91;99294.59;5010175;28;20022;-74
2021/04/22 10:47:02;;;;;;;4.90;2.33;;;;;;;27.01;24.94;99270.19;5002015;28;20026;-74
2021/04/22 10:49:27;;;;;;;5.40;2.40;;;;;;;27.58;24.44;99281.22;5010333;28;20037;-74
2021/04/22 10:51:54;;;;;;;7.50;2.28;;;;;;;27.05;24.32;99275.94;5010410;28;20029;-74
2021/04/22 10:54:20;;;;;;;8.68;2.50;;;;;;;25.66;26.05;99278.69;4980785;28;20673;-77
2021/04/22 10:56:46;;;;;;;11.32;2.60;;;;;;;25.33;27.07;99272.84;4987564;28;20025;-70
2021/04/22 10:59:20;;;;;;;7.50;2.92;;;;;;;25.21;27.92;99286.28;5007347;28;20033;-69
2021/04/22 11:01:45;;;;;;;6.78;2.55;;;;;;;25.01;24.74;99282.47;5011407;28;20033;-75
2021/04/22 11:04:11;;;;;;;9.70;2.70;;;;;;;25.47;25.57;99281.34;4998791;28;20034;-73
2021/04/22 11:06:40;;;;;;;5.65;2.60;;;;;;;25.62;24.71;99275.66;5003240;28;20025;-74
2021/04/22 11:09:14;;;;;;;6.75;2.25;;;;;;;25.81;24.68;99261.91;4990821;28;20360;-74
2021/04/22 11:11:55;;;;;;;5.93;2.40;;;;;;;25.66;25.10;99281.47;5012258;28;20547;-76
2021/04/22 11:14:21;;;;;;;4.85;2.03;;;;;;;26.40;24.16;99271.78;5001661;28;20057;-77
2021/04/22 11:16:49;;;;;;;6.45;2.30;;;;;;;25.49;23.77;99277.19;4993894;28;20123;-77
2021/04/22 11:19:20;;;;;;;5.60;2.30;;;;;;;26.61;23.66;99264.06;4993754;28;20033;-78
2021/04/22 11:21:58;;;;;;;7.18;2.25;;;;;;;24.12;24.27;99256.59;4990483;28;20120;-76
2021/04/22 11:24:42;;;;;;;6.57;2.25;;;;;;;25.14;24.64;99272.69;4985804;28;20040;-72
2021/04/22 11:27:13;;;;;;;7.30;2.70;;;;;;;25.85;23.79;99265.78;5011257;28;20025;-77
2021/04/22 11:29:43;;;;;;;6.35;2.53;;;;;;;25.51;23.66;99271.34;4991882;28;20084;-74